sensor_id;sensor_type;location;lat;lon;timestamp;pressure;altitude;pressure_sealevel;temperature;humidity
56689;BME280;42565;53.342;-1.534;2023-04-10T00:01:22;98581.98;;;7.97;74.16
56689;BME280;42565;53.342;-1.534;2023-04-10T00:03:49;98591.45;;;7.44;76.70
56689;BME280;42565;53.342;-1.534;2023-04-10T00:06:17;98576.86;;;7.30;78.14
56689;BME280;42565;53.342;-1.534;2023-04-10T00:08:44;98574.78;;;7.50;76.33
56689;BME280;42565;53.342;-1.534;2023-04-10T00:11:11;98571.40;;;7.89;75.16
56689;BME280;42565;53.342;-1.534;2023-04-10T00:13:38;98562.73;;;7.79;76.03
56689;BME280;42565;53.342;-1.534;2023-04-10T00:16:06;98559.66;;;7.55;77.41
56689;BME280;42565;53.342;-1.534;2023-04-10T00:18:33;98567.35;;;7.67;77.78
56689;BME280;42565;53.342;-1.534;2023-04-10T00:21:02;98555.77;;;7.51;79.48
56689;BME280;42565;53.342;-1.534;2023-04-10T00:23:29;98553.83;;;7.66;78.11
56689;BME280;42565;53.342;-1.534;2023-04-10T00:25:56;98559.00;;;7.56;79.56
56689;BME280;42565;53.342;-1.534;2023-04-10T00:28:24;98531.79;;;7.29;81.06
56689;BME280;42565;53.342;-1.534;2023-04-10T00:30:51;98533.58;;;6.79;82.05
56689;BME280;42565;53.342;-1.534;2023-04-10T00:33:19;98531.18;;;7.16;82.78
56689;BME280;42565;53.342;-1.534;2023-04-10T00:35:46;98531.99;;;6.51;84.32
56689;BME280;42565;53.342;-1.534;2023-04-10T00:38:13;98531.63;;;7.28;82.74
56689;BME280;42565;53.342;-1.534;2023-04-10T00:40:41;98514.82;;;7.39;81.54
56689;BME280;42565;53.342;-1.534;2023-04-10T00:43:08;98519.52;;;6.75;83.62
56689;BME280;42565;53.342;-1.534;2023-04-10T00:45:35;98516.84;;;6.91;83.54
56689;BME280;42565;53.342;-1.534;2023-04-10T00:48:02;98513.58;;;7.59;80.87
56689;BME280;42565;53.342;-1.534;2023-04-10T00:50:30;98518.45;;;7.55;80.60
56689;BME280;42565;53.342;-1.534;2023-04-10T00:52:57;98500.12;;;7.19;82.05
56689;BME280;42565;53.342;-1.534;2023-04-10T00:55:25;98510.13;;;7.48;82.07
56689;BME280;42565;53.342;-1.534;2023-04-10T00:57:54;98517.09;;;6.87;83.60
56689;BME280;42565;53.342;-1.534;2023-04-10T01:00:22;98510.62;;;6.86;85.10
56689;BME280;42565;53.342;-1.534;2023-04-10T01:02:49;98500.51;;;6.99;85.94
56689;BME280;42565;53.342;-1.534;2023-04-10T01:05:16;98499.00;;;7.35;87.50
56689;BME280;42565;53.342;-1.534;2023-04-10T01:07:53;98495.73;;;7.01;86.60
56689;BME280;42565;53.342;-1.534;2023-04-10T01:10:32;98494.03;;;6.94;89.80
56689;BME280;42565;53.342;-1.534;2023-04-10T01:13:15;98482.59;;;6.50;92.03
56689;BME280;42565;53.342;-1.534;2023-04-10T01:15:48;98473.24;;;6.96;90.98
56689;BME280;42565;53.342;-1.534;2023-04-10T01:18:24;98476.68;;;6.88;90.72
56689;BME280;42565;53.342;-1.534;2023-04-10T01:20:52;98469.97;;;6.65;92.85
56689;BME280;42565;53.342;-1.534;2023-04-10T01:23:52;98473.05;;;6.64;93.47
56689;BME280;42565;53.342;-1.534;2023-04-10T01:26:38;98468.81;;;6.52;94.64
56689;BME280;42565;53.342;-1.534;2023-04-10T01:29:07;98458.44;;;7.07;92.44
56689;BME280;42565;53.342;-1.534;2023-04-10T01:31:41;98457.03;;;6.63;93.38
56689;BME280;42565;53.342;-1.534;2023-04-10T01:34:14;98454.94;;;6.84;92.94
56689;BME280;42565;53.342;-1.534;2023-04-10T01:36:48;98447.94;;;7.05;92.45
56689;BME280;42565;53.342;-1.534;2023-04-10T01:39:18;98442.80;;;6.56;94.04
56689;BME280;42565;53.342;-1.534;2023-04-10T01:41:47;98445.14;;;6.47;93.21
56689;BME280;42565;53.342;-1.534;2023-04-10T01:44:17;98460.70;;;6.29;95.59
56689;BME280;42565;53.342;-1.534;2023-04-10T01:46:47;98437.18;;;5.75;97.40
56689;BME280;42565;53.342;-1.534;2023-04-10T01:49:17;98427.31;;;6.39;95.40
56689;BME280;42565;53.342;-1.534;2023-04-10T01:51:44;98421.01;;;6.07;95.12
56689;BME280;42565;53.342;-1.534;2023-04-10T01:54:12;98421.19;;;7.06;92.49
56689;BME280;42565;53.342;-1.534;2023-04-10T01:56:39;98419.34;;;6.70;95.26
56689;BME280;42565;53.342;-1.534;2023-04-10T01:59:07;98418.09;;;6.59;95.11
56689;BME280;42565;53.342;-1.534;2023-04-10T02:01:34;98416.63;;;6.86;96.29
56689;BME280;42565;53.342;-1.534;2023-04-10T02:04:01;98412.17;;;6.44;95.99
56689;BME280;42565;53.342;-1.534;2023-04-10T02:06:36;98402.52;;;6.54;96.07
56689;BME280;42565;53.342;-1.534;2023-04-10T02:09:11;98419.51;;;6.83;93.75
56689;BME280;42565;53.342;-1.534;2023-04-10T02:11:47;98409.51;;;6.92;95.02
56689;BME280;42565;53.342;-1.534;2023-04-10T02:14:17;98406.79;;;7.21;92.91
56689;BME280;42565;53.342;-1.534;2023-04-10T02:16:45;98404.55;;;6.61;93.67
56689;BME280;42565;53.342;-1.534;2023-04-10T02:19:12;98396.21;;;7.01;93.81
56689;BME280;42565;53.342;-1.534;2023-04-10T02:21:40;98390.60;;;7.11;94.97
56689;BME280;42565;53.342;-1.534;2023-04-10T02:24:07;98387.85;;;7.17;94.72
56689;BME280;42565;53.342;-1.534;2023-04-10T02:26:44;98393.13;;;6.99;97.82
56689;BME280;42565;53.342;-1.534;2023-04-10T02:29:11;98393.01;;;6.85;97.45
56689;BME280;42565;53.342;-1.534;2023-04-10T02:31:39;98379.78;;;7.05;95.17
56689;BME280;42565;53.342;-1.534;2023-04-10T02:34:07;98372.42;;;7.38;93.60
56689;BME280;42565;53.342;-1.534;2023-04-10T02:36:35;98372.36;;;7.39;93.90
56689;BME280;42565;53.342;-1.534;2023-04-10T02:39:02;98359.73;;;7.34;94.66
56689;BME280;42565;53.342;-1.534;2023-04-10T02:41:29;98359.14;;;7.26;94.49
56689;BME280;42565;53.342;-1.534;2023-04-10T02:43:56;98352.34;;;7.52;95.51
56689;BME280;42565;53.342;-1.534;2023-04-10T02:46:24;98346.25;;;8.23;90.92
56689;BME280;42565;53.342;-1.534;2023-04-10T02:48:51;98342.68;;;8.02;91.77
56689;BME280;42565;53.342;-1.534;2023-04-10T02:51:18;98336.13;;;7.60;92.60
56689;BME280;42565;53.342;-1.534;2023-04-10T02:53:46;98333.63;;;7.00;94.52
56689;BME280;42565;53.342;-1.534;2023-04-10T02:56:13;98324.24;;;7.84;92.74
56689;BME280;42565;53.342;-1.534;2023-04-10T02:58:42;98320.92;;;7.59;93.27
56689;BME280;42565;53.342;-1.534;2023-04-10T03:01:09;98309.20;;;8.03;91.62
56689;BME280;42565;53.342;-1.534;2023-04-10T03:03:36;98305.08;;;7.59;94.92
56689;BME280;42565;53.342;-1.534;2023-04-10T03:06:04;98301.26;;;7.34;96.54
56689;BME280;42565;53.342;-1.534;2023-04-10T03:08:31;98300.39;;;7.86;95.24
56689;BME280;42565;53.342;-1.534;2023-04-10T03:10:58;98295.68;;;7.35;95.07
56689;BME280;42565;53.342;-1.534;2023-04-10T03:13:25;98287.45;;;6.98;97.89
56689;BME280;42565;53.342;-1.534;2023-04-10T03:15:52;98282.51;;;7.55;95.31
56689;BME280;42565;53.342;-1.534;2023-04-10T03:18:20;98276.49;;;7.65;93.44
56689;BME280;42565;53.342;-1.534;2023-04-10T03:20:48;98280.96;;;8.03;92.40
56689;BME280;42565;53.342;-1.534;2023-04-10T03:23:15;98278.86;;;7.47;95.34
56689;BME280;42565;53.342;-1.534;2023-04-10T03:25:42;98274.33;;;7.82;94.06
56689;BME280;42565;53.342;-1.534;2023-04-10T03:28:09;98270.76;;;7.25;95.91
56689;BME280;42565;53.342;-1.534;2023-04-10T03:30:37;98268.07;;;7.48;95.63
56689;BME280;42565;53.342;-1.534;2023-04-10T03:33:03;98263.35;;;7.75;94.51
56689;BME280;42565;53.342;-1.534;2023-04-10T03:35:30;98258.51;;;7.52;94.54
56689;BME280;42565;53.342;-1.534;2023-04-10T03:37:57;98258.91;;;7.91;93.63
56689;BME280;42565;53.342;-1.534;2023-04-10T03:40:24;98255.74;;;7.95;93.90
56689;BME280;42565;53.342;-1.534;2023-04-10T03:42:52;98254.80;;;7.38;95.59
56689;BME280;42565;53.342;-1.534;2023-04-10T03:45:19;98266.95;;;6.91;99.12
56689;BME280;42565;53.342;-1.534;2023-04-10T03:47:46;98256.30;;;7.56;96.44
56689;BME280;42565;53.342;-1.534;2023-04-10T03:50:13;98259.42;;;7.63;96.55
56689;BME280;42565;53.342;-1.534;2023-04-10T03:52:41;98255.62;;;8.39;92.51
56689;BME280;42565;53.342;-1.534;2023-04-10T03:55:08;98255.02;;;8.05;92.62
56689;BME280;42565;53.342;-1.534;2023-04-10T03:57:35;98247.98;;;7.58;97.35
56689;BME280;42565;53.342;-1.534;2023-04-10T04:00:03;98247.46;;;8.04;94.68
56689;BME280;42565;53.342;-1.534;2023-04-10T04:02:30;98240.95;;;7.80;95.58
56689;BME280;42565;53.342;-1.534;2023-04-10T04:04:57;98232.04;;;8.35;93.82
56689;BME280;42565;53.342;-1.534;2023-04-10T04:07:23;98232.27;;;8.77;91.45
56689;BME280;42565;53.342;-1.534;2023-04-10T04:09:50;98229.56;;;8.28;92.82
56689;BME280;42565;53.342;-1.534;2023-04-10T04:12:17;98228.40;;;8.47;92.44
56689;BME280;42565;53.342;-1.534;2023-04-10T04:14:44;98226.35;;;8.09;92.09
56689;BME280;42565;53.342;-1.534;2023-04-10T04:17:12;98228.78;;;8.19;92.12
56689;BME280;42565;53.342;-1.534;2023-04-10T04:19:39;98230.11;;;8.86;90.45
56689;BME280;42565;53.342;-1.534;2023-04-10T04:22:05;98220.15;;;8.53;92.05
56689;BME280;42565;53.342;-1.534;2023-04-10T04:24:32;98218.99;;;7.85;96.02
56689;BME280;42565;53.342;-1.534;2023-04-10T04:26:59;98209.19;;;8.84;92.08
56689;BME280;42565;53.342;-1.534;2023-04-10T04:29:26;98209.39;;;8.19;94.75
56689;BME280;42565;53.342;-1.534;2023-04-10T04:31:53;98206.60;;;8.00;95.06
56689;BME280;42565;53.342;-1.534;2023-04-10T04:34:20;98209.82;;;7.64;96.64
56689;BME280;42565;53.342;-1.534;2023-04-10T04:36:47;98211.74;;;7.72;96.23
56689;BME280;42565;53.342;-1.534;2023-04-10T04:39:15;98209.76;;;8.02;96.42
56689;BME280;42565;53.342;-1.534;2023-04-10T04:41:42;98205.49;;;8.31;93.67
56689;BME280;42565;53.342;-1.534;2023-04-10T04:44:09;98207.12;;;7.46;97.88
56689;BME280;42565;53.342;-1.534;2023-04-10T04:46:36;98203.39;;;8.11;94.58
56689;BME280;42565;53.342;-1.534;2023-04-10T04:49:03;98196.09;;;8.59;93.15
56689;BME280;42565;53.342;-1.534;2023-04-10T04:51:31;98193.00;;;9.44;89.17
56689;BME280;42565;53.342;-1.534;2023-04-10T04:53:58;98184.74;;;8.43;92.13
56689;BME280;42565;53.342;-1.534;2023-04-10T04:56:24;98179.69;;;8.77;90.90
56689;BME280;42565;53.342;-1.534;2023-04-10T04:58:51;98183.31;;;8.41;92.39
56689;BME280;42565;53.342;-1.534;2023-04-10T05:01:18;98187.44;;;8.96;90.61
56689;BME280;42565;53.342;-1.534;2023-04-10T05:03:45;98184.01;;;8.33;90.96
56689;BME280;42565;53.342;-1.534;2023-04-10T05:06:12;98182.56;;;9.50;88.51
56689;BME280;42565;53.342;-1.534;2023-04-10T05:08:39;98187.57;;;8.96;89.72
56689;BME280;42565;53.342;-1.534;2023-04-10T05:11:06;98184.22;;;9.02;89.65
56689;BME280;42565;53.342;-1.534;2023-04-10T05:13:33;98182.72;;;8.67;91.56
56689;BME280;42565;53.342;-1.534;2023-04-10T05:16:01;98181.26;;;8.36;93.25
56689;BME280;42565;53.342;-1.534;2023-04-10T05:18:27;98171.60;;;8.81;91.24
56689;BME280;42565;53.342;-1.534;2023-04-10T05:20:55;98173.01;;;8.35;94.93
56689;BME280;42565;53.342;-1.534;2023-04-10T05:23:22;98173.05;;;8.66;92.60
56689;BME280;42565;53.342;-1.534;2023-04-10T05:25:49;98171.34;;;8.41;92.91
56689;BME280;42565;53.342;-1.534;2023-04-10T05:28:16;98165.83;;;8.58;93.98
56689;BME280;42565;53.342;-1.534;2023-04-10T05:30:44;98161.31;;;8.86;92.53
56689;BME280;42565;53.342;-1.534;2023-04-10T05:33:11;98154.36;;;9.22;90.17
56689;BME280;42565;53.342;-1.534;2023-04-10T05:35:38;98151.23;;;9.05;91.86
56689;BME280;42565;53.342;-1.534;2023-04-10T05:38:05;98153.43;;;9.05;91.15
56689;BME280;42565;53.342;-1.534;2023-04-10T05:40:32;98152.56;;;8.48;92.78
56689;BME280;42565;53.342;-1.534;2023-04-10T05:43:00;98151.36;;;8.76;91.75
56689;BME280;42565;53.342;-1.534;2023-04-10T05:45:26;98150.03;;;8.60;93.62
56689;BME280;42565;53.342;-1.534;2023-04-10T05:47:54;98143.03;;;8.61;93.36
56689;BME280;42565;53.342;-1.534;2023-04-10T05:50:21;98148.09;;;8.41;96.10
56689;BME280;42565;53.342;-1.534;2023-04-10T05:52:48;98149.81;;;8.42;94.85
56689;BME280;42565;53.342;-1.534;2023-04-10T05:55:15;98140.75;;;8.71;92.64
56689;BME280;42565;53.342;-1.534;2023-04-10T05:57:43;98134.54;;;8.86;92.27
56689;BME280;42565;53.342;-1.534;2023-04-10T06:00:11;98132.80;;;8.75;90.72
56689;BME280;42565;53.342;-1.534;2023-04-10T06:02:38;98125.68;;;8.97;90.74
56689;BME280;42565;53.342;-1.534;2023-04-10T06:05:05;98130.74;;;8.38;96.50
56689;BME280;42565;53.342;-1.534;2023-04-10T06:07:32;98132.70;;;8.76;94.94
56689;BME280;42565;53.342;-1.534;2023-04-10T06:10:00;98127.66;;;8.97;93.19
56689;BME280;42565;53.342;-1.534;2023-04-10T06:12:27;98122.90;;;8.93;93.51
56689;BME280;42565;53.342;-1.534;2023-04-10T06:14:54;98111.72;;;8.55;92.71
56689;BME280;42565;53.342;-1.534;2023-04-10T06:17:22;98113.55;;;8.70;94.16
56689;BME280;42565;53.342;-1.534;2023-04-10T06:19:49;98109.78;;;8.40;95.04
56689;BME280;42565;53.342;-1.534;2023-04-10T06:22:16;98110.68;;;9.04;93.02
56689;BME280;42565;53.342;-1.534;2023-04-10T06:24:43;98111.19;;;9.44;90.63
56689;BME280;42565;53.342;-1.534;2023-04-10T06:27:10;98112.58;;;9.05;91.98
56689;BME280;42565;53.342;-1.534;2023-04-10T06:29:37;98104.47;;;9.63;90.57
56689;BME280;42565;53.342;-1.534;2023-04-10T06:32:05;98102.77;;;8.97;92.10
56689;BME280;42565;53.342;-1.534;2023-04-10T06:34:31;98092.98;;;9.72;90.13
56689;BME280;42565;53.342;-1.534;2023-04-10T06:36:58;98091.63;;;9.73;88.71
56689;BME280;42565;53.342;-1.534;2023-04-10T06:39:25;98085.51;;;9.95;88.44
56689;BME280;42565;53.342;-1.534;2023-04-10T06:41:52;98088.67;;;9.72;87.73
56689;BME280;42565;53.342;-1.534;2023-04-10T06:44:19;98094.85;;;9.19;90.63
56689;BME280;42565;53.342;-1.534;2023-04-10T06:46:46;98092.45;;;8.69;93.73
56689;BME280;42565;53.342;-1.534;2023-04-10T06:49:13;98088.49;;;9.02;93.65
56689;BME280;42565;53.342;-1.534;2023-04-10T06:51:40;98079.13;;;9.02;93.72
56689;BME280;42565;53.342;-1.534;2023-04-10T06:54:06;98076.46;;;8.82;93.55
56689;BME280;42565;53.342;-1.534;2023-04-10T06:56:33;98078.62;;;8.76;93.34
56689;BME280;42565;53.342;-1.534;2023-04-10T06:59:01;98061.26;;;9.04;93.14
56689;BME280;42565;53.342;-1.534;2023-04-10T07:01:28;98055.93;;;8.81;95.30
56689;BME280;42565;53.342;-1.534;2023-04-10T07:03:55;98058.68;;;8.85;94.49
56689;BME280;42565;53.342;-1.534;2023-04-10T07:06:22;98064.48;;;9.44;92.26
56689;BME280;42565;53.342;-1.534;2023-04-10T07:08:49;98054.07;;;8.82;92.23
56689;BME280;42565;53.342;-1.534;2023-04-10T07:11:16;98051.63;;;9.17;91.12
56689;BME280;42565;53.342;-1.534;2023-04-10T07:13:43;98046.84;;;9.84;89.10
56689;BME280;42565;53.342;-1.534;2023-04-10T07:16:10;98031.27;;;9.46;89.27
56689;BME280;42565;53.342;-1.534;2023-04-10T07:18:37;98041.37;;;9.68;89.17
56689;BME280;42565;53.342;-1.534;2023-04-10T07:21:09;98045.23;;;8.75;94.16
56689;BME280;42565;53.342;-1.534;2023-04-10T07:23:36;98040.13;;;9.28;93.57
56689;BME280;42565;53.342;-1.534;2023-04-10T07:26:04;98034.06;;;9.36;92.20
56689;BME280;42565;53.342;-1.534;2023-04-10T07:28:31;98032.77;;;9.01;93.50
56689;BME280;42565;53.342;-1.534;2023-04-10T07:30:58;98034.60;;;9.78;90.09
56689;BME280;42565;53.342;-1.534;2023-04-10T07:33:24;98034.74;;;9.53;91.64
56689;BME280;42565;53.342;-1.534;2023-04-10T07:35:51;98035.63;;;9.30;91.34
56689;BME280;42565;53.342;-1.534;2023-04-10T07:38:18;98039.81;;;9.24;91.96
56689;BME280;42565;53.342;-1.534;2023-04-10T07:40:45;98041.27;;;8.74;94.29
56689;BME280;42565;53.342;-1.534;2023-04-10T07:43:11;98040.31;;;9.07;92.81
56689;BME280;42565;53.342;-1.534;2023-04-10T07:45:38;98035.68;;;9.44;90.67
56689;BME280;42565;53.342;-1.534;2023-04-10T07:48:06;98031.81;;;9.62;90.56
56689;BME280;42565;53.342;-1.534;2023-04-10T07:50:33;98035.06;;;9.40;92.37
56689;BME280;42565;53.342;-1.534;2023-04-10T07:53:00;98024.16;;;9.27;91.99
56689;BME280;42565;53.342;-1.534;2023-04-10T07:55:27;98021.82;;;9.76;90.92
56689;BME280;42565;53.342;-1.534;2023-04-10T07:57:54;98008.21;;;9.75;90.94
56689;BME280;42565;53.342;-1.534;2023-04-10T08:00:21;98013.12;;;9.80;89.95
56689;BME280;42565;53.342;-1.534;2023-04-10T08:02:47;98008.29;;;9.28;91.69
56689;BME280;42565;53.342;-1.534;2023-04-10T08:05:14;98000.90;;;9.50;91.50
56689;BME280;42565;53.342;-1.534;2023-04-10T08:07:41;97992.37;;;9.15;93.06
56689;BME280;42565;53.342;-1.534;2023-04-10T08:10:09;97988.53;;;8.87;95.95
56689;BME280;42565;53.342;-1.534;2023-04-10T08:12:36;97987.82;;;9.44;95.83
56689;BME280;42565;53.342;-1.534;2023-04-10T08:15:04;97974.32;;;9.27;95.32
56689;BME280;42565;53.342;-1.534;2023-04-10T08:17:31;97969.91;;;9.14;94.70
56689;BME280;42565;53.342;-1.534;2023-04-10T08:19:58;97975.56;;;9.20;94.62
56689;BME280;42565;53.342;-1.534;2023-04-10T08:22:25;97972.43;;;9.63;93.26
56689;BME280;42565;53.342;-1.534;2023-04-10T08:24:51;97971.85;;;9.45;93.46
56689;BME280;42565;53.342;-1.534;2023-04-10T08:27:18;97971.27;;;10.29;89.24
56689;BME280;42565;53.342;-1.534;2023-04-10T08:29:45;97967.78;;;9.54;90.72
56689;BME280;42565;53.342;-1.534;2023-04-10T08:32:12;97966.50;;;9.90;91.29
56689;BME280;42565;53.342;-1.534;2023-04-10T08:34:39;97966.57;;;10.08;90.45
56689;BME280;42565;53.342;-1.534;2023-04-10T08:37:07;97966.02;;;9.20;93.14
56689;BME280;42565;53.342;-1.534;2023-04-10T08:39:34;97954.65;;;9.69;91.32
56689;BME280;42565;53.342;-1.534;2023-04-10T08:42:01;97943.45;;;9.98;89.61
56689;BME280;42565;53.342;-1.534;2023-04-10T08:44:29;97944.26;;;10.20;87.70
56689;BME280;42565;53.342;-1.534;2023-04-10T08:46:58;97938.79;;;10.40;85.64
56689;BME280;42565;53.342;-1.534;2023-04-10T08:49:31;97932.86;;;10.23;89.07
56689;BME280;42565;53.342;-1.534;2023-04-10T08:52:07;97933.25;;;10.18;86.44
56689;BME280;42565;53.342;-1.534;2023-04-10T08:54:37;97932.80;;;10.02;87.46
56689;BME280;42565;53.342;-1.534;2023-04-10T08:57:06;97929.05;;;10.99;84.12
56689;BME280;42565;53.342;-1.534;2023-04-10T08:59:34;97925.10;;;10.06;85.22
56689;BME280;42565;53.342;-1.534;2023-04-10T09:02:02;97930.68;;;10.21;85.02
56689;BME280;42565;53.342;-1.534;2023-04-10T09:04:28;97922.56;;;9.78;87.03
56689;BME280;42565;53.342;-1.534;2023-04-10T09:06:55;97915.35;;;10.48;83.96
56689;BME280;42565;53.342;-1.534;2023-04-10T09:09:22;97910.45;;;9.94;86.33
56689;BME280;42565;53.342;-1.534;2023-04-10T09:11:57;97903.80;;;10.29;84.72
56689;BME280;42565;53.342;-1.534;2023-04-10T09:14:26;97898.90;;;11.08;82.79
56689;BME280;42565;53.342;-1.534;2023-04-10T09:17:09;97895.27;;;11.42;81.27
56689;BME280;42565;53.342;-1.534;2023-04-10T09:19:37;97894.91;;;10.21;84.50
56689;BME280;42565;53.342;-1.534;2023-04-10T09:22:04;97886.19;;;9.96;85.04
56689;BME280;42565;53.342;-1.534;2023-04-10T09:24:35;97884.48;;;10.35;84.69
56689;BME280;42565;53.342;-1.534;2023-04-10T09:27:01;97880.20;;;11.00;82.26
56689;BME280;42565;53.342;-1.534;2023-04-10T09:29:40;97873.01;;;11.81;78.36
56689;BME280;42565;53.342;-1.534;2023-04-10T09:32:07;97866.90;;;11.27;78.48
56689;BME280;42565;53.342;-1.534;2023-04-10T09:34:41;97859.11;;;10.86;80.67
56689;BME280;42565;53.342;-1.534;2023-04-10T09:37:17;97861.81;;;10.35;83.52
56689;BME280;42565;53.342;-1.534;2023-04-10T09:39:44;97849.98;;;10.21;82.45
56689;BME280;42565;53.342;-1.534;2023-04-10T09:42:12;97852.72;;;10.61;81.64
56689;BME280;42565;53.342;-1.534;2023-04-10T09:44:40;97842.57;;;10.58;80.77
56689;BME280;42565;53.342;-1.534;2023-04-10T09:47:16;97835.51;;;11.09;80.61
56689;BME280;42565;53.342;-1.534;2023-04-10T09:49:45;97820.23;;;10.52;80.78
56689;BME280;42565;53.342;-1.534;2023-04-10T09:52:17;97824.55;;;10.54;81.17
56689;BME280;42565;53.342;-1.534;2023-04-10T09:54:44;97820.45;;;9.99;81.00
56689;BME280;42565;53.342;-1.534;2023-04-10T09:57:15;97812.81;;;9.75;83.56
56689;BME280;42565;53.342;-1.534;2023-04-10T09:59:46;97805.41;;;9.91;82.48
56689;BME280;42565;53.342;-1.534;2023-04-10T10:02:15;97791.40;;;9.77;83.42
56689;BME280;42565;53.342;-1.534;2023-04-10T10:04:44;97782.65;;;10.45;80.82
56689;BME280;42565;53.342;-1.534;2023-04-10T10:07:13;97781.70;;;10.81;79.16
56689;BME280;42565;53.342;-1.534;2023-04-10T10:09:42;97764.43;;;11.29;76.94
56689;BME280;42565;53.342;-1.534;2023-04-10T10:12:11;97754.78;;;11.16;76.39
56689;BME280;42565;53.342;-1.534;2023-04-10T10:14:46;97750.70;;;11.65;74.88
56689;BME280;42565;53.342;-1.534;2023-04-10T10:17:17;97746.94;;;12.44;70.77
56689;BME280;42565;53.342;-1.534;2023-04-10T10:19:51;97757.06;;;11.56;69.40
56689;BME280;42565;53.342;-1.534;2023-04-10T10:22:21;97750.13;;;11.62;70.53
56689;BME280;42565;53.342;-1.534;2023-04-10T10:24:52;97747.61;;;12.13;72.13
56689;BME280;42565;53.342;-1.534;2023-04-10T10:27:19;97746.55;;;12.25;71.50
56689;BME280;42565;53.342;-1.534;2023-04-10T10:29:48;97741.87;;;11.28;71.45
56689;BME280;42565;53.342;-1.534;2023-04-10T10:32:16;97742.74;;;11.03;72.91
56689;BME280;42565;53.342;-1.534;2023-04-10T10:34:44;97743.08;;;10.18;75.28
56689;BME280;42565;53.342;-1.534;2023-04-10T10:37:11;97741.47;;;11.67;74.48
56689;BME280;42565;53.342;-1.534;2023-04-10T10:39:48;97731.41;;;12.32;71.41
56689;BME280;42565;53.342;-1.534;2023-04-10T10:42:24;97722.76;;;11.92;69.24
56689;BME280;42565;53.342;-1.534;2023-04-10T10:45:04;97723.73;;;11.35;70.91
56689;BME280;42565;53.342;-1.534;2023-04-10T10:47:39;97720.82;;;11.53;70.51
56689;BME280;42565;53.342;-1.534;2023-04-10T10:50:08;97725.42;;;12.12;65.83
56689;BME280;42565;53.342;-1.534;2023-04-10T10:52:37;97709.74;;;11.75;59.00
56689;BME280;42565;53.342;-1.534;2023-04-10T10:55:37;97711.88;;;11.27;58.37
56689;BME280;42565;53.342;-1.534;2023-04-10T10:58:06;97692.94;;;11.73;58.15
56689;BME280;42565;53.342;-1.534;2023-04-10T11:01:06;97689.74;;;10.92;59.56
56689;BME280;42565;53.342;-1.534;2023-04-10T11:03:33;97679.11;;;11.11;59.41
56689;BME280;42565;53.342;-1.534;2023-04-10T11:06:02;97683.17;;;11.47;60.78
56689;BME280;42565;53.342;-1.534;2023-04-10T11:08:39;97680.35;;;11.65;59.32
56689;BME280;42565;53.342;-1.534;2023-04-10T11:11:09;97671.06;;;11.99;57.69
56689;BME280;42565;53.342;-1.534;2023-04-10T11:13:38;97675.04;;;12.50;56.77
56689;BME280;42565;53.342;-1.534;2023-04-10T11:16:07;97659.83;;;12.30;56.19
56689;BME280;42565;53.342;-1.534;2023-04-10T11:19:07;97652.90;;;12.16;55.22
56689;BME280;42565;53.342;-1.534;2023-04-10T11:21:35;97646.36;;;12.51;53.81
56689;BME280;42565;53.342;-1.534;2023-04-10T11:24:03;97645.80;;;11.98;54.90
56689;BME280;42565;53.342;-1.534;2023-04-10T11:26:39;97628.54;;;11.76;56.16
56689;BME280;42565;53.342;-1.534;2023-04-10T11:29:31;97627.91;;;12.09;57.81
56689;BME280;42565;53.342;-1.534;2023-04-10T11:32:00;97635.74;;;11.96;59.50
56689;BME280;42565;53.342;-1.534;2023-04-10T11:34:27;97635.47;;;12.35;61.32
56689;BME280;42565;53.342;-1.534;2023-04-10T11:36:55;97628.79;;;12.28;60.48
56689;BME280;42565;53.342;-1.534;2023-04-10T11:39:22;97621.49;;;12.52;62.81
56689;BME280;42565;53.342;-1.534;2023-04-10T11:41:50;97617.12;;;12.27;63.78
56689;BME280;42565;53.342;-1.534;2023-04-10T11:44:27;97610.49;;;12.81;64.00
56689;BME280;42565;53.342;-1.534;2023-04-10T11:46:54;97599.02;;;12.72;62.44
56689;BME280;42565;53.342;-1.534;2023-04-10T11:49:23;97588.53;;;13.03;62.14
56689;BME280;42565;53.342;-1.534;2023-04-10T11:51:51;97579.59;;;12.57;62.50
56689;BME280;42565;53.342;-1.534;2023-04-10T11:54:20;97575.45;;;12.51;63.71
56689;BME280;42565;53.342;-1.534;2023-04-10T11:56:56;97570.45;;;12.46;65.89
56689;BME280;42565;53.342;-1.534;2023-04-10T11:59:25;97577.88;;;12.62;65.67
56689;BME280;42565;53.342;-1.534;2023-04-10T12:01:53;97630.32;;;12.77;66.33
56689;BME280;42565;53.342;-1.534;2023-04-10T12:04:22;97684.68;;;10.22;74.77
56689;BME280;42565;53.342;-1.534;2023-04-10T12:06:50;97657.33;;;10.11;75.95
56689;BME280;42565;53.342;-1.534;2023-04-10T12:09:19;97641.78;;;9.71;76.87
56689;BME280;42565;53.342;-1.534;2023-04-10T12:11:49;97631.17;;;9.12;77.95
56689;BME280;42565;53.342;-1.534;2023-04-10T12:14:17;97624.14;;;9.29;78.09
56689;BME280;42565;53.342;-1.534;2023-04-10T12:16:44;97616.25;;;8.93;78.16
56689;BME280;42565;53.342;-1.534;2023-04-10T12:19:12;97605.32;;;8.98;80.55
56689;BME280;42565;53.342;-1.534;2023-04-10T12:21:40;97598.44;;;8.95;80.03
56689;BME280;42565;53.342;-1.534;2023-04-10T12:24:08;97586.38;;;9.21;81.60
56689;BME280;42565;53.342;-1.534;2023-04-10T12:26:35;97586.80;;;9.71;80.60
56689;BME280;42565;53.342;-1.534;2023-04-10T12:29:03;97571.29;;;9.12;85.32
56689;BME280;42565;53.342;-1.534;2023-04-10T12:31:32;97577.51;;;9.51;83.30
56689;BME280;42565;53.342;-1.534;2023-04-10T12:34:01;97565.14;;;9.40;81.87
56689;BME280;42565;53.342;-1.534;2023-04-10T12:36:30;97573.77;;;9.23;80.95
56689;BME280;42565;53.342;-1.534;2023-04-10T12:38:58;97560.01;;;9.04;83.18
56689;BME280;42565;53.342;-1.534;2023-04-10T12:41:27;97556.05;;;9.36;82.91
56689;BME280;42565;53.342;-1.534;2023-04-10T12:44:07;97556.22;;;9.53;80.05
56689;BME280;42565;53.342;-1.534;2023-04-10T12:46:34;97549.46;;;9.43;75.60
56689;BME280;42565;53.342;-1.534;2023-04-10T12:49:08;97575.84;;;9.77;76.19
56689;BME280;42565;53.342;-1.534;2023-04-10T12:51:52;97554.67;;;9.47;74.23
56689;BME280;42565;53.342;-1.534;2023-04-10T12:54:28;97561.87;;;9.46;74.86
56689;BME280;42565;53.342;-1.534;2023-04-10T12:56:55;97577.68;;;9.69;74.48
56689;BME280;42565;53.342;-1.534;2023-04-10T12:59:23;97560.28;;;9.45;70.50
56689;BME280;42565;53.342;-1.534;2023-04-10T13:01:50;97572.18;;;9.40;73.12
56689;BME280;42565;53.342;-1.534;2023-04-10T13:04:18;97572.44;;;9.33;73.29
56689;BME280;42565;53.342;-1.534;2023-04-10T13:06:45;97557.76;;;9.85;68.68